sensor_id;sensor_type;location;lat;lon;timestamp;pressure;altitude;pressure_sealevel;temperature;humidity
13581;BME280;6861;46.170;7.222;2022-10-17T00:00:46;96812.50;;;16.97;49.58
13581;BME280;6861;46.170;7.222;2022-10-17T00:03:12;96810.94;;;16.96;50.01
13581;BME280;6861;46.170;7.222;2022-10-17T00:05:40;96809.94;;;16.92;50.34
13581;BME280;6861;46.170;7.222;2022-10-17T00:08:08;96814.00;;;16.85;50.43
13581;BME280;6861;46.170;7.222;2022-10-17T00:10:35;96806.69;;;16.77;49.81
13581;BME280;6861;46.170;7.222;2022-10-17T00:13:02;96810.25;;;16.67;50.42
13581;BME280;6861;46.170;7.222;2022-10-17T00:15:29;96803.69;;;16.59;50.46
13581;BME280;6861;46.170;7.222;2022-10-17T00:17:58;96804.53;;;16.55;50.21
13581;BME280;6861;46.170;7.222;2022-10-17T00:20:25;96804.09;;;16.48;50.15
13581;BME280;6861;46.170;7.222;2022-10-17T00:22:52;96798.88;;;16.43;50.60
13581;BME280;6861;46.170;7.222;2022-10-17T00:25:19;96797.88;;;16.38;50.77
13581;BME280;6861;46.170;7.222;2022-10-17T00:27:45;96802.59;;;16.42;50.64
13581;BME280;6861;46.170;7.222;2022-10-17T00:30:14;96804.09;;;16.48;50.60
13581;BME280;6861;46.170;7.222;2022-10-17T00:32:42;96809.25;;;16.58;50.86
13581;BME280;6861;46.170;7.222;2022-10-17T00:35:10;96801.56;;;16.61;50.54
13581;BME280;6861;46.170;7.222;2022-10-17T00:37:37;96804.44;;;16.65;50.37
13581;BME280;6861;46.170;7.222;2022-10-17T00:40:05;96810.19;;;16.72;49.93
13581;BME280;6861;46.170;7.222;2022-10-17T00:42:33;96819.13;;;16.76;50.22
13581;BME280;6861;46.170;7.222;2022-10-17T00:45:09;96812.75;;;16.77;50.37
13581;BME280;6861;46.170;7.222;2022-10-17T00:47:39;96814.63;;;16.77;50.20
13581;BME280;6861;46.170;7.222;2022-10-17T00:50:07;96822.78;;;16.80;50.04
13581;BME280;6861;46.170;7.222;2022-10-17T00:52:36;96829.13;;;16.79;50.21
13581;BME280;6861;46.170;7.222;2022-10-17T00:55:08;96824.91;;;16.78;49.47
13581;BME280;6861;46.170;7.222;2022-10-17T00:57:37;96831.19;;;16.82;49.73
13581;BME280;6861;46.170;7.222;2022-10-17T01:00:07;96829.06;;;16.84;49.38
13581;BME280;6861;46.170;7.222;2022-10-17T01:02:34;96824.00;;;16.88;49.12
13581;BME280;6861;46.170;7.222;2022-10-17T01:05:01;96824.44;;;16.95;48.91
13581;BME280;6861;46.170;7.222;2022-10-17T01:07:29;96833.44;;;16.94;49.26
13581;BME280;6861;46.170;7.222;2022-10-17T01:09:58;96833.56;;;16.84;49.19
13581;BME280;6861;46.170;7.222;2022-10-17T01:12:28;96830.25;;;16.73;49.56
13581;BME280;6861;46.170;7.222;2022-10-17T01:15:07;96830.81;;;16.70;49.64
13581;BME280;6861;46.170;7.222;2022-10-17T01:17:44;96825.03;;;16.68;49.95
13581;BME280;6861;46.170;7.222;2022-10-17T01:26:54;96820.41;;;16.31;50.63
13581;BME280;6861;46.170;7.222;2022-10-17T01:29:36;96820.72;;;16.24;50.82
13581;BME280;6861;46.170;7.222;2022-10-17T01:32:15;96823.47;;;16.14;50.88
13581;BME280;6861;46.170;7.222;2022-10-17T01:34:47;96825.31;;;16.14;51.04
13581;BME280;6861;46.170;7.222;2022-10-17T01:37:27;96820.81;;;16.14;50.93
13581;BME280;6861;46.170;7.222;2022-10-17T01:40:01;96819.25;;;16.13;50.77
13581;BME280;6861;46.170;7.222;2022-10-17T01:42:34;96826.19;;;16.04;51.13
13581;BME280;6861;46.170;7.222;2022-10-17T01:45:06;96829.44;;;15.96;51.42
13581;BME280;6861;46.170;7.222;2022-10-17T01:47:38;96825.00;;;15.91;51.57
13581;BME280;6861;46.170;7.222;2022-10-17T01:50:12;96828.97;;;15.89;51.51
13581;BME280;6861;46.170;7.222;2022-10-17T01:52:45;96833.22;;;15.85;51.47
13581;BME280;6861;46.170;7.222;2022-10-17T01:55:17;96827.16;;;15.84;51.47
13581;BME280;6861;46.170;7.222;2022-10-17T01:57:49;96835.53;;;15.91;51.35
13581;BME280;6861;46.170;7.222;2022-10-17T02:00:20;96834.66;;;16.01;51.07
13581;BME280;6861;46.170;7.222;2022-10-17T02:02:54;96840.75;;;16.01;51.15
13581;BME280;6861;46.170;7.222;2022-10-17T02:05:25;96839.69;;;16.02;51.27
13581;BME280;6861;46.170;7.222;2022-10-17T02:07:53;96836.19;;;16.07;51.14
13581;BME280;6861;46.170;7.222;2022-10-17T02:10:26;96842.75;;;16.15;50.99
13581;BME280;6861;46.170;7.222;2022-10-17T02:12:58;96829.72;;;16.23;50.62
13581;BME280;6861;46.170;7.222;2022-10-17T02:15:37;96833.31;;;16.32;50.59
13581;BME280;6861;46.170;7.222;2022-10-17T02:18:15;96834.34;;;16.36;50.32
13581;BME280;6861;46.170;7.222;2022-10-17T02:20:49;96835.34;;;16.41;50.69
13581;BME280;6861;46.170;7.222;2022-10-17T02:23:22;96834.84;;;16.38;50.12
13581;BME280;6861;46.170;7.222;2022-10-17T02:25:56;96828.03;;;16.32;50.21
13581;BME280;6861;46.170;7.222;2022-10-17T02:28:29;96829.94;;;16.27;50.24
13581;BME280;6861;46.170;7.222;2022-10-17T02:31:01;96828.66;;;16.24;50.50
13581;BME280;6861;46.170;7.222;2022-10-17T02:33:32;96825.28;;;16.19;50.54
13581;BME280;6861;46.170;7.222;2022-10-17T02:36:04;96832.72;;;16.12;50.65
13581;BME280;6861;46.170;7.222;2022-10-17T02:38:33;96832.00;;;16.06;50.90
13581;BME280;6861;46.170;7.222;2022-10-17T02:41:02;96837.28;;;16.06;50.75
13581;BME280;6861;46.170;7.222;2022-10-17T02:43:30;96846.44;;;16.14;50.85
13581;BME280;6861;46.170;7.222;2022-10-17T02:45:57;96847.13;;;16.24;50.16
13581;BME280;6861;46.170;7.222;2022-10-17T02:48:28;96849.19;;;16.32;50.26
13581;BME280;6861;46.170;7.222;2022-10-17T02:51:05;96840.66;;;16.41;49.86
13581;BME280;6861;46.170;7.222;2022-10-17T02:53:38;96852.69;;;16.47;50.15
13581;BME280;6861;46.170;7.222;2022-10-17T02:56:15;96847.13;;;16.48;49.67
13581;BME280;6861;46.170;7.222;2022-10-17T02:58:46;96858.94;;;16.56;49.70
13581;BME280;6861;46.170;7.222;2022-10-17T03:01:15;96858.16;;;16.55;49.56
13581;BME280;6861;46.170;7.222;2022-10-17T03:03:42;96862.88;;;16.58;49.87
13581;BME280;6861;46.170;7.222;2022-10-17T03:06:10;96855.00;;;16.53;49.28
13581;BME280;6861;46.170;7.222;2022-10-17T03:08:37;96848.00;;;16.44;49.80
13581;BME280;6861;46.170;7.222;2022-10-17T03:11:04;96860.28;;;16.29;49.91
13581;BME280;6861;46.170;7.222;2022-10-17T03:13:31;96861.53;;;16.08;50.31
13581;BME280;6861;46.170;7.222;2022-10-17T03:15:58;96865.38;;;15.92;50.85
13581;BME280;6861;46.170;7.222;2022-10-17T03:18:25;96868.06;;;15.87;50.96
13581;BME280;6861;46.170;7.222;2022-10-17T03:20:52;96871.19;;;15.89;50.76
13581;BME280;6861;46.170;7.222;2022-10-17T03:23:20;96872.22;;;15.93;51.00
13581;BME280;6861;46.170;7.222;2022-10-17T03:25:47;96871.63;;;16.01;50.71
13581;BME280;6861;46.170;7.222;2022-10-17T03:28:14;96872.44;;;16.01;50.65
13581;BME280;6861;46.170;7.222;2022-10-17T03:30:41;96865.84;;;15.99;50.97
13581;BME280;6861;46.170;7.222;2022-10-17T03:33:07;96870.88;;;15.95;50.63
13581;BME280;6861;46.170;7.222;2022-10-17T03:35:37;96871.94;;;15.94;50.75
13581;BME280;6861;46.170;7.222;2022-10-17T03:38:04;96873.88;;;15.84;51.03
13581;BME280;6861;46.170;7.222;2022-10-17T03:40:33;96887.44;;;15.67;51.48
13581;BME280;6861;46.170;7.222;2022-10-17T03:42:59;96888.84;;;15.59;51.96
13581;BME280;6861;46.170;7.222;2022-10-17T03:45:26;96890.44;;;15.55;51.73
13581;BME280;6861;46.170;7.222;2022-10-17T03:47:53;96891.75;;;15.53;51.85
13581;BME280;6861;46.170;7.222;2022-10-17T03:50:20;96890.44;;;15.50;51.95
13581;BME280;6861;46.170;7.222;2022-10-17T03:52:47;96892.06;;;15.46;51.95
13581;BME280;6861;46.170;7.222;2022-10-17T03:55:14;96893.69;;;15.37;52.10
13581;BME280;6861;46.170;7.222;2022-10-17T03:57:43;96897.66;;;15.34;52.19
13581;BME280;6861;46.170;7.222;2022-10-17T04:00:11;96900.31;;;15.29;52.37
13581;BME280;6861;46.170;7.222;2022-10-17T04:02:38;96900.34;;;15.24;52.48
13581;BME280;6861;46.170;7.222;2022-10-17T04:05:06;96907.47;;;15.24;52.77
13581;BME280;6861;46.170;7.222;2022-10-17T04:07:33;96905.34;;;15.26;52.59
13581;BME280;6861;46.170;7.222;2022-10-17T04:10:01;96908.50;;;15.28;52.74
13581;BME280;6861;46.170;7.222;2022-10-17T04:12:29;96906.13;;;15.31;52.25
13581;BME280;6861;46.170;7.222;2022-10-17T04:14:57;96916.91;;;15.35;52.43
13581;BME280;6861;46.170;7.222;2022-10-17T04:17:24;96923.75;;;15.36;52.36
13581;BME280;6861;46.170;7.222;2022-10-17T04:19:51;96924.28;;;15.38;51.91
13581;BME280;6861;46.170;7.222;2022-10-17T04:22:17;96932.16;;;15.43;51.88
13581;BME280;6861;46.170;7.222;2022-10-17T04:24:44;96920.53;;;15.49;51.85
13581;BME280;6861;46.170;7.222;2022-10-17T04:27:11;96926.84;;;15.53;51.73
13581;BME280;6861;46.170;7.222;2022-10-17T04:29:38;96922.63;;;15.57;51.99
13581;BME280;6861;46.170;7.222;2022-10-17T04:32:07;96939.75;;;15.55;51.74
13581;BME280;6861;46.170;7.222;2022-10-17T04:34:33;96940.56;;;15.55;51.71
13581;BME280;6861;46.170;7.222;2022-10-17T04:37:00;96941.34;;;15.56;51.48
13581;BME280;6861;46.170;7.222;2022-10-17T04:39:28;96940.53;;;15.60;51.64
13581;BME280;6861;46.170;7.222;2022-10-17T04:41:55;96937.88;;;15.60;51.67
13581;BME280;6861;46.170;7.222;2022-10-17T04:44:22;96938.47;;;15.57;51.60
13581;BME280;6861;46.170;7.222;2022-10-17T04:46:49;96938.97;;;15.54;51.46
13581;BME280;6861;46.170;7.222;2022-10-17T04:49:17;96932.97;;;15.44;51.95
13581;BME280;6861;46.170;7.222;2022-10-17T04:51:44;96939.63;;;15.26;52.20
13581;BME280;6861;46.170;7.222;2022-10-17T04:54:11;96936.28;;;15.05;52.88
13581;BME280;6861;46.170;7.222;2022-10-17T04:56:38;96938.16;;;14.89;52.61
13581;BME280;6861;46.170;7.222;2022-10-17T04:59:05;96936.59;;;14.78;53.17
13581;BME280;6861;46.170;7.222;2022-10-17T05:01:31;96927.97;;;14.72;53.05
13581;BME280;6861;46.170;7.222;2022-10-17T05:03:58;96926.66;;;14.65;53.84
13581;BME280;6861;46.170;7.222;2022-10-17T05:06:26;96937.72;;;14.57;53.59
13581;BME280;6861;46.170;7.222;2022-10-17T05:08:54;96939.31;;;14.48;53.85
13581;BME280;6861;46.170;7.222;2022-10-17T05:11:23;96938.50;;;14.37;53.91
13581;BME280;6861;46.170;7.222;2022-10-17T05:13:52;96938.78;;;14.25;54.31
13581;BME280;6861;46.170;7.222;2022-10-17T05:16:19;96938.25;;;14.18;54.37
13581;BME280;6861;46.170;7.222;2022-10-17T05:18:47;96947.72;;;14.19;54.59
13581;BME280;6861;46.170;7.222;2022-10-17T05:21:15;96946.66;;;14.30;54.19
13581;BME280;6861;46.170;7.222;2022-10-17T05:23:44;96954.59;;;14.46;53.95
13581;BME280;6861;46.170;7.222;2022-10-17T05:26:12;96955.13;;;14.58;53.88
13581;BME280;6861;46.170;7.222;2022-10-17T05:28:39;96956.94;;;14.67;54.06
13581;BME280;6861;46.170;7.222;2022-10-17T05:31:07;96958.78;;;14.72;53.61
13581;BME280;6861;46.170;7.222;2022-10-17T05:33:35;96958.78;;;14.72;53.34
13581;BME280;6861;46.170;7.222;2022-10-17T05:36:03;96963.00;;;14.68;53.09
13581;BME280;6861;46.170;7.222;2022-10-17T05:38:30;96955.38;;;14.56;53.31
13581;BME280;6861;46.170;7.222;2022-10-17T05:40:59;96949.56;;;14.39;53.94
13581;BME280;6861;46.170;7.222;2022-10-17T05:43:26;96957.19;;;14.40;53.79
13581;BME280;6861;46.170;7.222;2022-10-17T05:45:54;96950.09;;;14.41;53.85
13581;BME280;6861;46.170;7.222;2022-10-17T05:48:22;96964.06;;;14.47;53.88
13581;BME280;6861;46.170;7.222;2022-10-17T05:50:57;96969.09;;;14.43;54.06
13581;BME280;6861;46.170;7.222;2022-10-17T05:53:24;96965.63;;;14.37;53.78
13581;BME280;6861;46.170;7.222;2022-10-17T05:55:59;96974.31;;;14.33;53.99
13581;BME280;6861;46.170;7.222;2022-10-17T05:58:27;96983.28;;;14.37;53.81
13581;BME280;6861;46.170;7.222;2022-10-17T06:00:56;96984.63;;;14.45;54.35
13581;BME280;6861;46.170;7.222;2022-10-17T06:03:23;96988.31;;;14.54;54.13
13581;BME280;6861;46.170;7.222;2022-10-17T06:05:50;96986.72;;;14.63;53.64
13581;BME280;6861;46.170;7.222;2022-10-17T06:08:17;96991.97;;;14.68;53.73
13581;BME280;6861;46.170;7.222;2022-10-17T06:10:46;96995.09;;;14.75;53.39
13581;BME280;6861;46.170;7.222;2022-10-17T06:13:15;96995.63;;;14.77;53.31
13581;BME280;6861;46.170;7.222;2022-10-17T06:15:42;96995.66;;;14.72;53.47
13581;BME280;6861;46.170;7.222;2022-10-17T06:18:09;97003.03;;;14.65;53.61
13581;BME280;6861;46.170;7.222;2022-10-17T06:20:36;97008.84;;;14.57;53.34
13581;BME280;6861;46.170;7.222;2022-10-17T06:23:04;97010.69;;;14.51;53.66
13581;BME280;6861;46.170;7.222;2022-10-17T06:25:31;97018.59;;;14.46;54.21
13581;BME280;6861;46.170;7.222;2022-10-17T06:27:58;97023.28;;;14.39;53.89
13581;BME280;6861;46.170;7.222;2022-10-17T06:30:26;97022.81;;;14.42;53.62
13581;BME280;6861;46.170;7.222;2022-10-17T06:32:53;97033.06;;;14.49;53.83
13581;BME280;6861;46.170;7.222;2022-10-17T06:35:20;97026.75;;;14.50;53.89
13581;BME280;6861;46.170;7.222;2022-10-17T06:37:47;97030.97;;;14.51;54.23
13581;BME280;6861;46.170;7.222;2022-10-17T06:40:14;97034.13;;;14.42;54.29
13581;BME280;6861;46.170;7.222;2022-10-17T06:42:44;97041.19;;;14.32;53.73
13581;BME280;6861;46.170;7.222;2022-10-17T06:45:11;97029.34;;;14.24;54.07
13581;BME280;6861;46.170;7.222;2022-10-17T06:47:39;97043.53;;;14.23;54.15
13581;BME280;6861;46.170;7.222;2022-10-17T06:50:06;97035.66;;;14.23;54.69
13581;BME280;6861;46.170;7.222;2022-10-17T06:52:33;97044.59;;;14.27;54.38
13581;BME280;6861;46.170;7.222;2022-10-17T06:55:00;97041.72;;;14.34;53.87
13581;BME280;6861;46.170;7.222;2022-10-17T06:57:27;97045.16;;;14.39;54.05
13581;BME280;6861;46.170;7.222;2022-10-17T06:59:54;97046.50;;;14.42;54.39
13581;BME280;6861;46.170;7.222;2022-10-17T07:02:22;97054.69;;;14.51;53.69
13581;BME280;6861;46.170;7.222;2022-10-17T07:04:50;97059.94;;;14.56;53.84
13581;BME280;6861;46.170;7.222;2022-10-17T07:07:18;97066.28;;;14.60;53.97
13581;BME280;6861;46.170;7.222;2022-10-17T07:09:45;97071.53;;;14.70;53.17
13581;BME280;6861;46.170;7.222;2022-10-17T07:12:12;97078.09;;;14.77;53.36
13581;BME280;6861;46.170;7.222;2022-10-17T07:14:39;97077.56;;;14.81;53.27
13581;BME280;6861;46.170;7.222;2022-10-17T07:17:05;97077.31;;;14.82;53.01
13581;BME280;6861;46.170;7.222;2022-10-17T07:19:32;97079.41;;;14.85;53.14
13581;BME280;6861;46.170;7.222;2022-10-17T07:22:01;97080.47;;;14.89;53.12
13581;BME280;6861;46.170;7.222;2022-10-17T07:24:27;97083.09;;;14.94;53.36
13581;BME280;6861;46.170;7.222;2022-10-17T07:26:54;97081.00;;;14.96;52.85
13581;BME280;6861;46.170;7.222;2022-10-17T07:29:21;97083.63;;;14.96;53.30
13581;BME280;6861;46.170;7.222;2022-10-17T07:31:48;97086.28;;;14.96;52.93
13581;BME280;6861;46.170;7.222;2022-10-17T07:34:16;97092.06;;;15.03;52.70
13581;BME280;6861;46.170;7.222;2022-10-17T07:36:43;97088.13;;;15.06;52.72
13581;BME280;6861;46.170;7.222;2022-10-17T07:39:11;97092.59;;;15.11;52.78
13581;BME280;6861;46.170;7.222;2022-10-17T07:41:38;97088.09;;;15.11;52.46
13581;BME280;6861;46.170;7.222;2022-10-17T07:44:05;97094.16;;;15.12;52.55
13581;BME280;6861;46.170;7.222;2022-10-17T07:46:32;97094.16;;;15.12;52.04
13581;BME280;6861;46.170;7.222;2022-10-17T07:48:59;97098.38;;;15.13;52.64
13581;BME280;6861;46.170;7.222;2022-10-17T07:51:26;97100.22;;;15.17;52.60
13581;BME280;6861;46.170;7.222;2022-10-17T07:53:53;97099.44;;;15.22;52.44
13581;BME280;6861;46.170;7.222;2022-10-17T07:56:21;97100.47;;;15.26;52.38
13581;BME280;6861;46.170;7.222;2022-10-17T07:58:49;97102.06;;;15.32;52.08
13581;BME280;6861;46.170;7.222;2022-10-17T08:01:16;97102.03;;;15.37;52.46
13581;BME280;6861;46.170;7.222;2022-10-17T08:03:44;97099.94;;;15.44;52.22
13581;BME280;6861;46.170;7.222;2022-10-17T08:06:13;97101.50;;;15.50;52.29
13581;BME280;6861;46.170;7.222;2022-10-17T08:08:40;97098.31;;;15.53;52.25
13581;BME280;6861;46.170;7.222;2022-10-17T08:11:09;97095.97;;;15.57;52.18
13581;BME280;6861;46.170;7.222;2022-10-17T08:13:39;97096.19;;;15.60;52.16
13581;BME280;6861;46.170;7.222;2022-10-17T08:16:07;97084.31;;;15.63;51.89
13581;BME280;6861;46.170;7.222;2022-10-17T08:18:35;97083.50;;;15.67;52.40
13581;BME280;6861;46.170;7.222;2022-10-17T08:21:03;97090.34;;;15.73;52.33
13581;BME280;6861;46.170;7.222;2022-10-17T08:23:30;97088.47;;;15.79;52.11
13581;BME280;6861;46.170;7.222;2022-10-17T08:25:58;97085.81;;;15.84;51.94
13581;BME280;6861;46.170;7.222;2022-10-17T08:28:25;97078.41;;;15.86;51.48
13581;BME280;6861;46.170;7.222;2022-10-17T08:31:01;97081.81;;;15.92;51.59
13581;BME280;6861;46.170;7.222;2022-10-17T08:33:28;97085.00;;;15.94;52.11
13581;BME280;6861;46.170;7.222;2022-10-17T08:35:57;97086.03;;;15.98;51.82
13581;BME280;6861;46.170;7.222;2022-10-17T08:38:24;97086.53;;;16.00;51.74
13581;BME280;6861;46.170;7.222;2022-10-17T08:40:51;97087.06;;;16.02;51.37
13581;BME280;6861;46.170;7.222;2022-10-17T08:43:27;97087.81;;;16.08;51.63
13581;BME280;6861;46.170;7.222;2022-10-17T08:46:01;97090.44;;;16.13;51.52
13581;BME280;6861;46.170;7.222;2022-10-17T08:48:30;97085.94;;;16.18;51.68
13581;BME280;6861;46.170;7.222;2022-10-17T08:51:00;97085.63;;;16.25;51.73
13581;BME280;6861;46.170;7.222;2022-10-17T08:53:32;97082.16;;;16.29;52.23
13581;BME280;6861;46.170;7.222;2022-10-17T08:56:05;97079.50;;;16.34;51.94
13581;BME280;6861;46.170;7.222;2022-10-17T08:58:36;97078.94;;;16.37;51.69
13581;BME280;6861;46.170;7.222;2022-10-17T09:01:17;97078.66;;;16.44;51.15
13581;BME280;6861;46.170;7.222;2022-10-17T09:04:03;97088.88;;;16.51;51.67
13581;BME280;6861;46.170;7.222;2022-10-17T09:06:32;97079.34;;;16.55;51.23
13581;BME280;6861;46.170;7.222;2022-10-17T09:09:26;97079.81;;;16.62;51.19
13581;BME280;6861;46.170;7.222;2022-10-17T09:12:03;97072.66;;;16.67;50.87
13581;BME280;6861;46.170;7.222;2022-10-17T09:14:43;97073.94;;;16.75;51.34
13581;BME280;6861;46.170;7.222;2022-10-17T09:17:27;97065.41;;;16.83;51.05
13581;BME280;6861;46.170;7.222;2022-10-17T09:20:00;97067.47;;;16.91;50.55
13581;BME280;6861;46.170;7.222;2022-10-17T09:22:32;97070.56;;;16.98;50.30
13581;BME280;6861;46.170;7.222;2022-10-17T09:25:05;97062.53;;;17.09;50.39
13581;BME280;6861;46.170;7.222;2022-10-17T09:27:40;97067.75;;;17.19;49.76
13581;BME280;6861;46.170;7.222;2022-10-17T09:30:26;97065.50;;;17.31;49.47
13581;BME280;6861;46.170;7.222;2022-10-17T09:32:55;97064.81;;;17.44;49.66
13581;BME280;6861;46.170;7.222;2022-10-17T09:35:23;97069.66;;;17.61;49.31
13581;BME280;6861;46.170;7.222;2022-10-17T09:37:51;97063.94;;;17.78;49.25
13581;BME280;6861;46.170;7.222;2022-10-17T09:40:23;97062.38;;;17.95;48.88
13581;BME280;6861;46.170;7.222;2022-10-17T09:42:50;97055.03;;;18.11;49.11
13581;BME280;6861;46.170;7.222;2022-10-17T09:45:19;97054.78;;;18.26;48.44
13581;BME280;6861;46.170;7.222;2022-10-17T09:48:00;97056.44;;;18.41;48.09
13581;BME280;6861;46.170;7.222;2022-10-17T09:50:32;97055.41;;;18.56;47.94
13581;BME280;6861;46.170;7.222;2022-10-17T09:53:02;97058.16;;;18.70;47.95
13581;BME280;6861;46.170;7.222;2022-10-17T09:55:37;97048.66;;;18.82;47.49
13581;BME280;6861;46.170;7.222;2022-10-17T09:58:06;97049.78;;;18.95;46.92
13581;BME280;6861;46.170;7.222;2022-10-17T10:00:35;97049.78;;;19.09;46.54
13581;BME280;6861;46.170;7.222;2022-10-17T10:03:18;97041.06;;;19.22;46.25
13581;BME280;6861;46.170;7.222;2022-10-17T10:05:59;97047.16;;;19.36;45.76
13581;BME280;6861;46.170;7.222;2022-10-17T10:08:32;97044.53;;;19.50;45.65
13581;BME280;6861;46.170;7.222;2022-10-17T10:11:01;97039.84;;;19.60;45.68
13581;BME280;6861;46.170;7.222;2022-10-17T10:13:29;97039.63;;;19.71;45.43
13581;BME280;6861;46.170;7.222;2022-10-17T10:16:16;97039.63;;;19.84;45.13
13581;BME280;6861;46.170;7.222;2022-10-17T10:18:45;97034.25;;;19.98;44.85
13581;BME280;6861;46.170;7.222;2022-10-17T10:21:13;97031.88;;;20.10;44.35
13581;BME280;6861;46.170;7.222;2022-10-17T10:23:41;97031.03;;;20.23;44.11
13581;BME280;6861;46.170;7.222;2022-10-17T10:26:21;97024.72;;;20.33;43.75
13581;BME280;6861;46.170;7.222;2022-10-17T10:28:55;97017.81;;;20.46;43.57
13581;BME280;6861;46.170;7.222;2022-10-17T10:31:29;97017.75;;;20.59;43.34
13581;BME280;6861;46.170;7.222;2022-10-17T10:34:01;97014.22;;;20.73;43.45
13581;BME280;6861;46.170;7.222;2022-10-17T10:36:45;97009.13;;;20.85;43.34
13581;BME280;6861;46.170;7.222;2022-10-17T10:39:28;97007.31;;;21.03;42.82
13581;BME280;6861;46.170;7.222;2022-10-17T10:41:56;97010.22;;;21.15;42.14
13581;BME280;6861;46.170;7.222;2022-10-17T10:44:26;97002.94;;;21.29;42.03
13581;BME280;6861;46.170;7.222;2022-10-17T10:47:13;97004.22;;;21.40;41.65
13581;BME280;6861;46.170;7.222;2022-10-17T10:49:43;97004.13;;;21.54;40.92
13581;BME280;6861;46.170;7.222;2022-10-17T10:52:17;96988.63;;;21.65;40.56
13581;BME280;6861;46.170;7.222;2022-10-17T10:54:53;96988.31;;;21.75;39.81
13581;BME280;6861;46.170;7.222;2022-10-17T10:57:25;96990.19;;;21.83;39.31
13581;BME280;6861;46.170;7.222;2022-10-17T10:59:59;96987.53;;;21.91;38.91
13581;BME280;6861;46.170;7.222;2022-10-17T11:02:33;96982.84;;;21.97;39.05
13581;BME280;6861;46.170;7.222;2022-10-17T11:05:09;96978.19;;;22.03;38.37
13581;BME280;6861;46.170;7.222;2022-10-17T11:07:41;96973.47;;;22.08;38.32
13581;BME280;6861;46.170;7.222;2022-10-17T11:10:13;96973.31;;;22.13;38.10
13581;BME280;6861;46.170;7.222;2022-10-17T11:12:46;96964.69;;;22.16;38.36
13581;BME280;6861;46.170;7.222;2022-10-17T11:15:19;96964.06;;;22.19;37.83
13581;BME280;6861;46.170;7.222;2022-10-17T11:17:54;96958.56;;;22.24;37.56
13581;BME280;6861;46.170;7.222;2022-10-17T11:20:31;96949.47;;;22.26;37.63
13581;BME280;6861;46.170;7.222;2022-10-17T11:23:09;96949.78;;;22.24;37.71
13581;BME280;6861;46.170;7.222;2022-10-17T11:25:44;96941.63;;;22.20;37.90
13581;BME280;6861;46.170;7.222;2022-10-17T11:28:14;96931.59;;;22.17;37.96
13581;BME280;6861;46.170;7.222;2022-10-17T11:30:45;96924.88;;;22.11;37.83
13581;BME280;6861;46.170;7.222;2022-10-17T11:33:17;96931.28;;;22.10;38.35
13581;BME280;6861;46.170;7.222;2022-10-17T11:35:49;96926.59;;;22.07;38.35
13581;BME280;6861;46.170;7.222;2022-10-17T11:38:32;96923.00;;;22.03;38.04
13581;BME280;6861;46.170;7.222;2022-10-17T11:41:02;96921.69;;;22.01;37.99
13581;BME280;6861;46.170;7.222;2022-10-17T11:43:33;96912.44;;;21.98;38.33
13581;BME280;6861;46.170;7.222;2022-10-17T11:49:03;96905.41;;;21.93;37.46
13581;BME280;6861;46.170;7.222;2022-10-17T11:51:39;96909.94;;;21.93;37.91
13581;BME280;6861;46.170;7.222;2022-10-17T11:54:12;96901.94;;;21.93;37.28
13581;BME280;6861;46.170;7.222;2022-10-17T11:56:44;96895.53;;;21.94;37.78
13581;BME280;6861;46.170;7.222;2022-10-17T11:59:47;96900.06;;;21.93;37.70
13581;BME280;6861;46.170;7.222;2022-10-17T12:02:27;96888.31;;;21.95;37.73
13581;BME280;6861;46.170;7.222;2022-10-17T12:05:00;96894.09;;;21.97;37.88
13581;BME280;6861;46.170;7.222;2022-10-17T12:07:37;96894.88;;;21.97;37.06
13581;BME280;6861;46.170;7.222;2022-10-17T12:10:21;96879.84;;;22.01;36.73
13581;BME280;6861;46.170;7.222;2022-10-17T12:12:51;96883.00;;;22.03;36.51
13581;BME280;6861;46.170;7.222;2022-10-17T12:15:29;96880.03;;;22.05;36.47
13581;BME280;6861;46.170;7.222;2022-10-17T12:17:57;96878.59;;;22.07;35.73
13581;BME280;6861;46.170;7.222;2022-10-17T12:20:32;96870.28;;;22.09;35.58
13581;BME280;6861;46.170;7.222;2022-10-17T12:23:13;96865.75;;;22.09;35.44
13581;BME280;6861;46.170;7.222;2022-10-17T12:25:48;96864.00;;;22.13;35.45
13581;BME280;6861;46.170;7.222;2022-10-17T12:28:28;96862.28;;;22.17;35.60
13581;BME280;6861;46.170;7.222;2022-10-17T12:30:59;96853.34;;;22.22;35.97
13581;BME280;6861;46.170;7.222;2022-10-17T12:33:32;96848.63;;;22.28;36.14
13581;BME280;6861;46.170;7.222;2022-10-17T12:42:31;96836.66;;;22.42;36.11
13581;BME280;6861;46.170;7.222;2022-10-17T12:44:58;96830.69;;;22.45;36.30
13581;BME280;6861;46.170;7.222;2022-10-17T12:47:37;96821.72;;;22.50;35.22
13581;BME280;6861;46.170;7.222;2022-10-17T12:53:15;96810.53;;;22.56;35.39
13581;BME280;6861;46.170;7.222;2022-10-17T12:55:43;96818.97;;;22.58;35.45
13581;BME280;6861;46.170;7.222;2022-10-17T12:58:13;96803.13;;;22.62;35.05
13581;BME280;6861;46.170;7.222;2022-10-17T13:00:50;96795.13;;;22.62;35.01
13581;BME280;6861;46.170;7.222;2022-10-17T13:03:20;96798.84;;;22.70;35.26
13581;BME280;6861;46.170;7.222;2022-10-17T13:05:50;96792.09;;;22.72;34.59
13581;BME280;6861;46.170;7.222;2022-10-17T13:08:21;96791.44;;;22.75;35.18
13581;BME280;6861;46.170;7.222;2022-10-17T13:10:50;96786.56;;;22.77;34.86
13581;BME280;6861;46.170;7.222;2022-10-17T13:13:21;96784.84;;;22.81;35.27
13581;BME280;6861;46.170;7.222;2022-10-17T13:15:50;96784.19;;;22.84;34.73
13581;BME280;6861;46.170;7.222;2022-10-17T13:18:19;96782.00;;;22.86;34.70
13581;BME280;6861;46.170;7.222;2022-10-17T13:20:55;96777.09;;;22.88;34.80
13581;BME280;6861;46.170;7.222;2022-10-17T13:23:22;96779.91;;;22.92;34.53
13581;BME280;6861;46.170;7.222;2022-10-17T13:26:02;96783.03;;;22.94;34.57
13581;BME280;6861;46.170;7.222;2022-10-17T13:28:31;96776.28;;;22.97;34.61
13581;BME280;6861;46.170;7.222;2022-10-17T13:30:58;96790.84;;;22.99;34.02
13581;BME280;6861;46.170;7.222;2022-10-17T13:33:30;96794.31;;;23.00;34.12
13581;BME280;6861;46.170;7.222;2022-10-17T13:35:58;96778.28;;;23.00;34.16
13581;BME280;6861;46.170;7.222;2022-10-17T13:38:27;96782.66;;;23.04;34.56
13581;BME280;6861;46.170;7.222;2022-10-17T13:40:56;96786.56;;;23.07;34.69
13581;BME280;6861;46.170;7.222;2022-10-17T13:43:24;96784.34;;;23.09;34.52
13581;BME280;6861;46.170;7.222;2022-10-17T13:45:55;96779.47;;;23.11;35.11